Time;durP1;ratioP1;P1;durP2;ratioP2;P2;SDS_P1;SDS_P2;PMS_P1;PMS_P2;Temp;Humidity;BMP_temperature;BMP_pressure;BME280_temperature;BME280_humidity;BME280_pressure;Samples;Min_cycle;Max_cycle;Signal;HPM_P1;HPM_P2
2021/03/19 00:00:22;;;;;;;15.30;13.70;;;7.30;99.90;;;;;;5092536;28;20176;-78
2021/03/19 00:02:52;;;;;;;16.20;14.07;;;7.20;99.90;;;;;;5057365;28;20397;-78
2021/03/19 00:05:20;;;;;;;15.93;14.27;;;7.20;99.90;;;;;;5092953;28;20422;-78
2021/03/19 00:07:49;;;;;;;14.80;13.30;;;7.20;99.90;;;;;;5091487;28;20451;-78
2021/03/19 00:10:18;;;;;;;15.63;13.75;;;7.20;99.90;;;;;;5074754;28;20411;-78
2021/03/19 00:12:45;;;;;;;15.23;13.60;;;7.00;99.90;;;;;;5091980;28;20587;-78
2021/03/19 00:15:12;;;;;;;17.57;14.50;;;6.90;99.90;;;;;;5074546;28;20429;-78
2021/03/19 00:17:38;;;;;;;17.38;14.60;;;6.80;99.90;;;;;;5091848;28;20478;-78
2021/03/19 00:20:09;;;;;;;20.13;14.77;;;6.80;99.90;;;;;;5074706;28;20165;-78
2021/03/19 00:22:35;;;;;;;16.83;14.30;;;6.70;99.90;;;;;;5091721;28;20775;-78
2021/03/19 00:25:02;;;;;;;19.13;15.70;;;6.60;99.90;;;;;;5092594;28;20399;-78
2021/03/19 00:27:28;;;;;;;16.80;14.50;;;6.60;99.90;;;;;;5092301;28;20446;-79
2021/03/19 00:29:54;;;;;;;18.80;13.87;;;6.70;99.90;;;;;;5074156;28;20402;-78
2021/03/19 00:32:20;;;;;;;15.47;13.87;;;6.80;99.90;;;;;;5092541;28;20172;-78
2021/03/19 00:34:46;;;;;;;17.80;15.00;;;6.70;99.90;;;;;;5091777;28;20597;-78
2021/03/19 00:37:11;;;;;;;16.77;13.87;;;6.70;99.90;;;;;;5092120;28;20632;-78
2021/03/19 00:39:37;;;;;;;17.60;15.27;;;6.80;99.90;;;;;;5091191;28;20178;-78
2021/03/19 00:42:04;;;;;;;20.30;15.73;;;6.50;99.90;;;;;;5074371;28;20176;-78
2021/03/19 00:44:30;;;;;;;18.50;15.60;;;6.50;99.90;;;;;;5090962;28;20451;-79
2021/03/19 00:46:55;;;;;;;22.60;15.70;;;6.40;99.90;;;;;;5091626;28;20270;-78
2021/03/19 00:49:22;;;;;;;23.13;17.63;;;6.30;99.90;;;;;;5092310;28;20242;-78
2021/03/19 00:51:48;;;;;;;19.77;15.90;;;6.30;99.90;;;;;;5090658;28;20439;-78
2021/03/19 00:54:14;;;;;;;21.30;17.13;;;6.30;99.90;;;;;;5092162;28;20176;-77
2021/03/19 00:56:39;;;;;;;22.50;15.40;;;6.30;99.90;;;;;;5091213;28;20469;-78
2021/03/19 00:59:08;;;;;;;24.60;17.30;;;6.40;99.90;;;;;;5092930;28;20193;-77
2021/03/19 01:01:35;;;;;;;24.47;18.83;;;6.40;99.90;;;;;;5095674;28;20165;-78
2021/03/19 01:04:04;;;;;;;23.60;19.23;;;6.60;99.90;;;;;;5078231;28;20402;-78
2021/03/19 01:06:30;;;;;;;25.00;19.27;;;6.70;99.90;;;;;;5095631;28;20920;-78
2021/03/19 01:08:56;;;;;;;22.10;19.10;;;6.70;99.90;;;;;;5077539;28;20413;-78
2021/03/19 01:11:22;;;;;;;23.73;18.13;;;6.80;99.90;;;;;;5095886;28;20406;-78
2021/03/19 01:13:49;;;;;;;26.93;19.70;;;6.80;99.90;;;;;;5095351;28;20220;-78
2021/03/19 01:16:14;;;;;;;24.88;18.92;;;6.80;99.90;;;;;;5096256;28;20406;-78
2021/03/19 01:18:40;;;;;;;20.80;17.97;;;6.90;99.90;;;;;;5077128;28;20165;-78
2021/03/19 01:21:06;;;;;;;22.17;18.10;;;6.90;99.90;;;;;;5077719;28;20177;-78
2021/03/19 01:23:32;;;;;;;22.83;18.70;;;6.90;99.90;;;;;;5095630;28;20172;-79
2021/03/19 01:25:58;;;;;;;22.35;18.05;;;6.80;99.90;;;;;;5077513;28;20193;-78
2021/03/19 01:28:24;;;;;;;23.20;19.30;;;6.80;99.90;;;;;;5095659;28;20177;-78
2021/03/19 01:30:51;;;;;;;21.95;17.58;;;6.70;99.90;;;;;;5095058;28;20188;-78
2021/03/19 01:33:17;;;;;;;21.03;18.70;;;6.70;99.90;;;;;;5077698;28;20554;-78
2021/03/19 01:35:43;;;;;;;25.17;17.93;;;6.80;99.90;;;;;;5094512;28;20742;-78
2021/03/19 01:38:12;;;;;;;24.80;18.50;;;6.80;99.80;;;;;;5095729;28;20381;-78
2021/03/19 01:40:47;;;;;;;20.77;17.53;;;6.70;99.50;;;;;;5076241;28;20429;-79
2021/03/19 01:43:27;;;;;;;21.58;17.02;;;6.70;99.80;;;;;;5095603;28;20415;-78
2021/03/19 01:45:59;;;;;;;21.80;17.30;;;6.80;99.70;;;;;;5094563;28;20231;-78
2021/03/19 01:49:07;;;;;;;23.50;17.30;;;6.70;99.70;;;;;;5095223;28;20400;-78
2021/03/19 01:52:10;;;;;;;20.60;16.77;;;6.80;99.80;;;;;;5047770;28;20518;-79
2021/03/19 01:55:13;;;;;;;25.10;17.90;;;6.90;99.70;;;;;;5094660;28;20369;-80
2021/03/19 01:58:16;;;;;;;23.10;17.57;;;6.90;99.50;;;;;;5076382;28;20506;-78
2021/03/19 02:01:19;;;;;;;24.13;17.48;;;7.00;99.60;;;;;;5094480;28;20469;-78
2021/03/19 02:04:22;;;;;;;23.05;18.80;;;7.00;99.60;;;;;;5094358;28;20164;-78
2021/03/19 02:07:26;;;;;;;23.90;18.60;;;7.00;99.30;;;;;;5076006;28;20200;-78
2021/03/19 02:10:28;;;;;;;22.63;18.43;;;7.10;99.40;;;;;;5094050;28;20382;-78
2021/03/19 02:13:31;;;;;;;27.17;21.57;;;6.90;99.30;;;;;;5094417;28;20522;-78
2021/03/19 02:16:36;;;;;;;24.50;19.10;;;6.90;99.30;;;;;;5094138;28;20450;-78
2021/03/19 02:19:39;;;;;;;25.00;20.17;;;6.90;99.30;;;;;;5046587;28;20915;-78
2021/03/19 02:22:42;;;;;;;23.00;18.97;;;7.00;99.30;;;;;;5094723;28;20425;-78
2021/03/19 02:25:45;;;;;;;24.50;18.87;;;7.00;99.30;;;;;;5076618;28;20485;-78
2021/03/19 02:28:48;;;;;;;25.97;20.03;;;7.00;99.40;;;;;;5094460;28;20460;-78
2021/03/19 02:31:14;;;;;;;28.13;20.30;;;7.00;99.20;;;;;;5076844;28;20413;-77
2021/03/19 02:33:46;;;;;;;24.03;19.07;;;7.00;99.20;;;;;;5093724;28;20414;-78
2021/03/19 02:36:13;;;;;;;25.70;21.10;;;7.00;99.20;;;;;;5094338;28;20626;-78
2021/03/19 02:38:38;;;;;;;28.13;20.40;;;7.10;99.20;;;;;;5093831;28;20395;-79
2021/03/19 02:41:04;;;;;;;28.53;21.67;;;6.90;99.60;;;;;;5076465;28;20373;-77
2021/03/19 02:43:30;;;;;;;30.33;22.83;;;6.70;99.90;;;;;;5075896;28;20177;-77
2021/03/19 02:45:56;;;;;;;29.27;22.40;;;6.50;99.90;;;;;;5093293;28;21278;-77
2021/03/19 02:48:22;;;;;;;29.23;21.60;;;6.60;99.90;;;;;;5094366;28;20413;-77
2021/03/19 02:50:49;;;;;;;28.53;21.40;;;6.60;99.90;;;;;;5093350;28;20255;-77
2021/03/19 02:53:27;;;;;;;30.90;22.50;;;6.60;99.90;;;;;;5056196;28;20366;-77
2021/03/19 02:55:53;;;;;;;25.70;21.03;;;6.60;99.90;;;;;;5055265;28;20399;-78
2021/03/19 02:58:19;;;;;;;27.90;22.27;;;6.80;99.90;;;;;;5056168;28;20411;-77
2021/03/19 03:00:45;;;;;;;27.63;22.20;;;6.80;99.90;;;;;;5073053;28;20382;-78
2021/03/19 03:03:11;;;;;;;28.17;22.70;;;6.80;99.90;;;;;;5073475;28;20177;-77
2021/03/19 03:05:37;;;;;;;26.33;21.75;;;6.80;99.90;;;;;;5073632;28;20390;-78
2021/03/19 03:08:04;;;;;;;28.80;21.70;;;6.80;99.90;;;;;;5092907;28;20236;-77
2021/03/19 03:10:31;;;;;;;28.60;22.37;;;6.80;99.90;;;;;;5094294;28;20724;-77
2021/03/19 03:12:56;;;;;;;25.67;21.55;;;6.60;99.90;;;;;;5074629;28;21238;-77
2021/03/19 03:15:23;;;;;;;24.80;21.07;;;6.60;99.90;;;;;;5093661;28;20261;-77
2021/03/19 03:17:49;;;;;;;25.67;20.17;;;6.70;99.90;;;;;;5074963;28;20182;-77
2021/03/19 03:20:23;;;;;;;24.77;20.33;;;6.60;99.90;;;;;;5093507;28;20169;-77
2021/03/19 03:22:49;;;;;;;25.20;18.50;;;6.50;99.90;;;;;;5092455;28;20165;-77
2021/03/19 03:25:17;;;;;;;26.60;19.07;;;6.20;99.90;;;;;;5075697;28;20406;-77
2021/03/19 03:27:43;;;;;;;26.20;20.88;;;6.20;99.90;;;;;;5092759;28;20200;-78
2021/03/19 03:30:15;;;;;;;24.10;19.00;;;6.20;99.90;;;;;;5075499;28;20632;-77
2021/03/19 03:32:43;;;;;;;23.73;18.50;;;6.10;99.90;;;;;;5075078;28;20204;-78
2021/03/19 03:35:10;;;;;;;24.80;20.33;;;5.90;99.90;;;;;;5075450;28;20173;-77
2021/03/19 03:37:36;;;;;;;24.83;19.00;;;6.00;99.90;;;;;;5075166;28;20267;-77
2021/03/19 03:40:06;;;;;;;27.00;19.40;;;5.90;99.90;;;;;;5092601;28;20218;-77
2021/03/19 03:42:32;;;;;;;27.20;20.13;;;5.80;99.90;;;;;;5093540;28;20165;-76
2021/03/19 03:44:57;;;;;;;29.70;20.67;;;5.80;99.90;;;;;;5092087;28;20188;-76
2021/03/19 03:47:23;;;;;;;24.83;19.90;;;5.80;99.90;;;;;;5093443;28;20192;-77
2021/03/19 03:49:49;;;;;;;26.47;22.03;;;5.90;99.90;;;;;;5092241;28;20251;-76
2021/03/19 03:52:14;;;;;;;29.73;21.30;;;5.90;99.90;;;;;;5092573;28;20631;-76
2021/03/19 03:54:40;;;;;;;27.60;21.17;;;6.00;99.90;;;;;;5092311;28;20612;-78
2021/03/19 03:57:06;;;;;;;28.63;20.50;;;6.00;99.90;;;;;;5092536;28;20175;-77
2021/03/19 03:59:32;;;;;;;25.23;19.00;;;6.10;99.90;;;;;;5093098;28;20840;-77
2021/03/19 04:01:57;;;;;;;26.90;20.07;;;6.20;99.90;;;;;;5073916;28;20682;-77
2021/03/19 04:04:23;;;;;;;22.77;18.90;;;6.10;99.90;;;;;;5092386;28;20203;-77
2021/03/19 04:06:49;;;;;;;28.93;21.60;;;6.10;99.90;;;;;;5091912;28;20212;-77
2021/03/19 04:09:15;;;;;;;24.83;20.93;;;6.20;99.90;;;;;;5092663;28;20439;-77
2021/03/19 04:11:41;;;;;;;23.27;19.17;;;6.20;99.90;;;;;;5074617;28;20377;-78
2021/03/19 04:14:07;;;;;;;27.13;20.13;;;6.10;99.90;;;;;;5092276;28;20182;-77
2021/03/19 04:16:33;;;;;;;27.50;21.03;;;6.10;99.90;;;;;;5074324;28;20768;-77
2021/03/19 04:18:59;;;;;;;29.15;22.55;;;6.10;99.90;;;;;;5091956;28;20165;-77
2021/03/19 04:21:25;;;;;;;32.43;22.00;;;6.00;99.90;;;;;;5092416;28;20507;-77
2021/03/19 04:23:51;;;;;;;28.35;21.58;;;6.10;99.90;;;;;;5091760;28;20173;-77
2021/03/19 04:26:30;;;;;;;27.77;21.30;;;6.10;99.90;;;;;;5092684;28;20253;-77
2021/03/19 04:28:56;;;;;;;27.90;20.42;;;6.10;99.90;;;;;;5091819;28;20450;-77
2021/03/19 04:31:23;;;;;;;29.35;21.27;;;6.20;99.90;;;;;;5092345;28;20168;-77
2021/03/19 04:33:49;;;;;;;28.20;21.05;;;6.20;99.90;;;;;;5090875;28;20255;-77
2021/03/19 04:36:55;;;;;;;26.95;21.58;;;6.20;99.80;;;;;;5092538;28;20207;-77
2021/03/19 04:39:27;;;;;;;31.50;22.83;;;6.20;99.80;;;;;;5074479;28;20182;-77
2021/03/19 04:41:55;;;;;;;27.27;20.60;;;6.20;99.60;;;;;;5091685;28;20176;-77
2021/03/19 04:44:24;;;;;;;30.83;21.20;;;6.20;99.50;;;;;;5074486;28;20490;-77
2021/03/19 04:46:50;;;;;;;29.50;21.20;;;6.20;99.50;;;;;;5090852;28;20227;-77
2021/03/19 04:49:17;;;;;;;27.88;20.33;;;6.20;99.50;;;;;;5074611;28;20206;-77
2021/03/19 04:51:43;;;;;;;30.80;21.42;;;6.00;99.70;;;;;;5073638;28;20188;-78
2021/03/19 04:54:09;;;;;;;26.97;19.40;;;6.10;99.90;;;;;;5091791;28;20175;-77
2021/03/19 04:56:35;;;;;;;29.75;20.77;;;5.80;99.90;;;;;;5092221;28;20176;-77
2021/03/19 04:59:01;;;;;;;24.60;19.70;;;5.80;99.90;;;;;;5091621;28;20229;-77
2021/03/19 05:01:27;;;;;;;26.88;19.92;;;5.80;99.90;;;;;;5092204;28;20190;-77
2021/03/19 05:03:53;;;;;;;26.58;19.80;;;5.70;99.90;;;;;;5091316;28;20301;-77
2021/03/19 05:06:19;;;;;;;26.23;19.20;;;5.80;99.90;;;;;;5092135;28;20287;-77
2021/03/19 05:08:46;;;;;;;29.13;19.55;;;5.90;99.90;;;;;;5073583;28;20249;-78
2021/03/19 05:11:13;;;;;;;27.65;21.08;;;5.90;99.90;;;;;;5091823;28;20197;-77
2021/03/19 05:13:41;;;;;;;26.90;19.60;;;5.90;99.30;;;;;;5091909;28;20262;-78
2021/03/19 05:16:07;;;;;;;26.55;19.55;;;5.90;99.10;;;;;;5089826;28;20180;-77
2021/03/19 05:18:33;;;;;;;25.15;18.45;;;6.00;98.90;;;;;;5092006;28;20165;-77
2021/03/19 05:20:59;;;;;;;22.65;17.92;;;6.00;98.40;;;;;;5091294;28;20286;-77
2021/03/19 05:23:31;;;;;;;22.20;17.75;;;6.00;97.90;;;;;;5057093;28;20192;-77
2021/03/19 05:25:58;;;;;;;25.52;17.15;;;6.00;97.80;;;;;;5090712;28;20176;-77
2021/03/19 05:28:25;;;;;;;26.88;18.17;;;6.10;97.90;;;;;;5074000;28;20604;-77
2021/03/19 05:30:54;;;;;;;21.55;18.08;;;6.00;97.70;;;;;;5091116;28;20192;-78
2021/03/19 05:33:22;;;;;;;21.00;17.70;;;6.00;97.30;;;;;;5073953;28;20562;-77
2021/03/19 05:35:48;;;;;;;25.50;18.08;;;6.00;97.40;;;;;;5090991;28;20200;-78
2021/03/19 05:38:14;;;;;;;23.50;18.50;;;6.00;97.30;;;;;;5091381;28;20208;-77
2021/03/19 05:40:44;;;;;;;23.10;18.67;;;6.00;97.30;;;;;;5091969;28;20493;-77
2021/03/19 05:43:22;;;;;;;22.63;16.30;;;6.00;97.20;;;;;;5091155;28;20165;-77
2021/03/19 05:46:14;;;;;;;24.10;17.23;;;5.80;96.70;;;;;;5092044;28;20660;-78
2021/03/19 05:48:59;;;;;;;21.20;19.00;;;5.70;97.10;;;;;;5054489;28;20169;-77
2021/03/19 05:51:52;;;;;;;18.40;15.00;;;5.70;97.20;;;;;;5096003;28;20168;-77
2021/03/19 05:54:25;;;;;;;24.15;17.15;;;5.90;97.10;;;;;;5057435;28;20252;-76
2021/03/19 05:57:00;;;;;;;17.90;15.63;;;5.80;96.90;;;;;;5074372;28;20215;-81
2021/03/19 05:59:34;;;;;;;18.38;15.27;;;5.80;96.90;;;;;;5057375;28;20181;-80
2021/03/19 06:02:00;;;;;;;18.67;16.67;;;5.70;96.80;;;;;;5074061;28;20176;-81
2021/03/19 06:04:29;;;;;;;20.85;16.73;;;5.80;96.90;;;;;;5077114;28;20222;-81
2021/03/19 06:07:03;;;;;;;18.30;16.40;;;5.80;96.90;;;;;;5076064;28;20200;-82
2021/03/19 06:09:29;;;;;;;18.60;16.75;;;5.80;96.70;;;;;;5095136;28;20172;-81
2021/03/19 06:12:03;;;;;;;19.77;15.47;;;5.80;96.70;;;;;;5076222;28;20240;-82
2021/03/19 06:14:32;;;;;;;19.95;15.23;;;5.70;96.60;;;;;;5076935;28;20168;-81
2021/03/19 06:17:10;;;;;;;23.52;14.90;;;5.70;96.60;;;;;;5094175;28;20172;-82
2021/03/19 06:19:52;;;;;;;22.38;16.75;;;5.70;96.70;;;;;;5076872;28;20255;-81
2021/03/19 06:22:24;;;;;;;18.13;16.23;;;5.70;96.90;;;;;;5076393;28;20160;-81
2021/03/19 06:25:26;;;;;;;16.55;14.82;;;5.70;96.80;;;;;;5094289;28;20167;-82
2021/03/19 06:27:54;;;;;;;17.20;15.40;;;5.80;96.50;;;;;;5072513;28;20517;-82
2021/03/19 06:30:26;;;;;;;18.45;14.50;;;5.80;96.40;;;;;;5076251;28;20188;-81
2021/03/19 06:33:10;;;;;;;20.25;16.00;;;5.80;96.30;;;;;;5074384;28;20253;-82
2021/03/19 06:35:37;;;;;;;17.75;14.25;;;5.80;96.20;;;;;;5058727;28;20180;-81
2021/03/19 06:38:31;;;;;;;18.27;15.63;;;5.80;96.30;;;;;;5093639;28;20215;-81
2021/03/19 06:41:16;;;;;;;17.15;15.32;;;5.90;96.50;;;;;;5093665;28;20244;-81
2021/03/19 06:43:42;;;;;;;15.60;13.85;;;5.90;96.40;;;;;;5060964;28;20165;-81
2021/03/19 06:46:16;;;;;;;21.25;14.18;;;5.80;96.70;;;;;;5074884;28;20236;-81
2021/03/19 06:48:45;;;;;;;14.70;13.15;;;5.60;97.20;;;;;;5094627;28;20187;-81
2021/03/19 06:51:31;;;;;;;14.45;12.93;;;5.70;97.10;;;;;;5075585;28;20183;-82
2021/03/19 06:54:04;;;;;;;15.02;13.52;;;5.60;96.90;;;;;;5092169;28;20177;-82
2021/03/19 06:56:30;;;;;;;15.10;13.45;;;5.70;97.30;;;;;;5075121;28;20173;-76
2021/03/19 06:58:56;;;;;;;15.98;14.27;;;5.70;96.90;;;;;;5075524;28;20564;-74
2021/03/19 07:01:36;;;;;;;15.73;14.02;;;5.70;96.80;;;;;;5076347;28;20172;-74
2021/03/19 07:04:17;;;;;;;16.83;14.95;;;5.70;96.80;;;;;;5093993;28;20169;-75
2021/03/19 07:06:57;;;;;;;14.25;12.75;;;5.80;96.60;;;;;;5075902;28;20279;-75
2021/03/19 07:09:58;;;;;;;14.38;12.40;;;5.80;96.60;;;;;;5076429;28;20627;-75
2021/03/19 07:12:31;;;;;;;16.42;14.77;;;5.90;96.50;;;;;;5094035;28;20242;-75
2021/03/19 07:15:13;;;;;;;18.83;15.35;;;6.00;96.30;;;;;;5090566;28;20560;-75
2021/03/19 07:17:55;;;;;;;15.07;13.05;;;5.80;95.50;;;;;;5094576;28;20172;-74
2021/03/19 07:20:39;;;;;;;16.08;13.82;;;5.60;95.80;;;;;;5093881;28;20196;-75
2021/03/19 07:23:16;;;;;;;15.30;13.43;;;5.50;96.40;;;;;;5093432;28;20191;-76
2021/03/19 07:26:11;;;;;;;14.52;12.35;;;5.70;96.70;;;;;;5071844;28;20531;-76
2021/03/19 07:29:05;;;;;;;15.60;13.50;;;5.60;96.70;;;;;;5055783;28;20212;-76
2021/03/19 07:31:54;;;;;;;15.70;14.10;;;5.70;96.40;;;;;;5073951;28;20196;-75
2021/03/19 07:34:47;;;;;;;17.17;14.68;;;5.80;95.80;;;;;;5073650;28;20176;-76
2021/03/19 07:37:25;;;;;;;16.92;15.32;;;5.40;95.90;;;;;;5076911;28;20820;-75
2021/03/19 07:40:09;;;;;;;16.70;14.65;;;5.00;96.10;;;;;;5093752;28;20191;-75
2021/03/19 07:42:56;;;;;;;14.13;12.68;;;4.80;97.10;;;;;;5093543;28;20240;-76
2021/03/19 07:45:47;;;;;;;15.68;14.18;;;5.00;97.70;;;;;;5093798;28;20220;-75
2021/03/19 07:48:32;;;;;;;15.68;12.63;;;5.10;97.50;;;;;;5091723;28;20173;-76
2021/03/19 07:51:16;;;;;;;15.50;14.00;;;5.30;97.40;;;;;;5072668;28;20169;-75
2021/03/19 07:53:55;;;;;;;14.65;13.15;;;5.50;97.40;;;;;;5073276;28;20168;-78
2021/03/19 07:56:43;;;;;;;15.52;13.85;;;5.70;96.90;;;;;;5077262;28;20179;-75
2021/03/19 07:59:48;;;;;;;16.65;13.95;;;5.90;96.90;;;;;;5068780;28;20176;-77
2021/03/19 08:02:46;;;;;;;16.35;14.55;;;6.10;96.90;;;;;;5092147;28;20180;-75
2021/03/19 08:05:26;;;;;;;16.17;12.90;;;6.20;96.50;;;;;;5072164;28;20183;-76
2021/03/19 08:08:16;;;;;;;16.42;12.50;;;6.20;96.70;;;;;;5072540;28;20538;-76
2021/03/19 08:10:54;;;;;;;17.17;13.05;;;6.10;96.30;;;;;;5089178;28;20165;-75
2021/03/19 08:13:42;;;;;;;13.82;11.68;;;5.80;96.70;;;;;;5055189;28;20181;-75
2021/03/19 08:16:15;;;;;;;13.38;10.82;;;5.70;96.80;;;;;;5072255;28;20184;-76
2021/03/19 08:18:50;;;;;;;14.15;12.63;;;5.70;96.80;;;;;;5070382;28;20187;-75
2021/03/19 08:21:37;;;;;;;15.40;13.45;;;5.60;97.10;;;;;;5054247;28;20202;-75
2021/03/19 08:24:21;;;;;;;15.48;13.65;;;5.60;97.00;;;;;;5072366;28;20169;-75
2021/03/19 08:27:10;;;;;;;15.48;12.90;;;5.70;97.20;;;;;;5072744;28;20201;-75
2021/03/19 08:29:54;;;;;;;15.68;13.75;;;5.70;97.30;;;;;;5072706;28;20160;-76
2021/03/19 08:32:23;;;;;;;15.50;12.38;;;5.80;97.60;;;;;;5072475;28;20173;-76
2021/03/19 08:35:00;;;;;;;15.48;11.65;;;5.80;97.30;;;;;;5072481;28;20188;-76
2021/03/19 08:37:48;;;;;;;15.07;12.82;;;5.90;97.60;;;;;;5063037;28;20183;-76
2021/03/19 08:40:43;;;;;;;13.40;10.32;;;6.10;97.30;;;;;;5071683;28;20184;-76
2021/03/19 08:43:19;;;;;;;13.45;11.38;;;6.20;96.40;;;;;;5062704;28;20188;-76
2021/03/19 08:45:45;;;;;;;14.88;12.40;;;6.30;95.50;;;;;;5072436;28;20289;-74
2021/03/19 08:48:16;;;;;;;12.37;11.00;;;6.40;95.40;;;;;;5059591;28;20228;-76
2021/03/19 08:50:44;;;;;;;11.70;10.57;;;6.60;94.60;;;;;;5062809;28;20398;-75
2021/03/19 08:53:22;;;;;;;80.55;47.38;;;6.60;94.30;;;;;;5071981;28;20169;-75
2021/03/19 08:56:03;;;;;;;37.03;24.35;;;6.70;94.50;;;;;;5058948;28;20168;-75
2021/03/19 08:58:29;;;;;;;11.90;10.70;;;6.80;94.00;;;;;;5092608;28;20171;-73
2021/03/19 09:00:58;;;;;;;12.40;10.70;;;6.90;94.10;;;;;;5091994;28;20926;-75
2021/03/19 09:03:42;;;;;;;10.90;9.90;;;7.00;94.40;;;;;;5074277;28;20170;-75
2021/03/19 09:06:15;;;;;;;11.80;10.70;;;7.10;93.60;;;;;;5091894;28;20443;-75
2021/03/19 09:08:47;;;;;;;12.93;10.60;;;7.10;92.90;;;;;;5092118;28;20413;-75
2021/03/19 09:11:21;;;;;;;9.90;8.90;;;7.10;92.80;;;;;;5091917;28;20386;-75
2021/03/19 09:14:03;;;;;;;10.87;9.80;;;7.20;93.60;;;;;;5092089;28;20385;-75
2021/03/19 09:16:50;;;;;;;10.67;9.67;;;7.20;92.60;;;;;;5074396;28;20414;-75
2021/03/19 09:19:31;;;;;;;10.70;9.63;;;7.50;94.50;;;;;;5078516;28;21348;-75
2021/03/19 09:22:29;;;;;;;9.77;8.77;;;7.80;94.80;;;;;;5076251;28;20386;-76
2021/03/19 09:25:13;;;;;;;10.90;9.97;;;7.90;92.10;;;;;;5077950;28;20424;-74
2021/03/19 09:27:59;;;;;;;9.50;8.70;;;8.00;92.30;;;;;;5093685;28;20523;-74
2021/03/19 09:30:35;;;;;;;10.30;9.40;;;8.20;92.00;;;;;;5096211;28;20408;-75
2021/03/19 09:33:02;;;;;;;9.80;8.80;;;8.20;91.50;;;;;;5094985;28;20414;-74
2021/03/19 09:35:42;;;;;;;8.50;7.70;;;8.30;91.10;;;;;;5061145;28;20414;-75
2021/03/19 09:38:33;;;;;;;10.27;9.37;;;8.10;90.20;;;;;;5095660;28;20395;-75
2021/03/19 09:41:04;;;;;;;10.13;9.10;;;7.80;90.50;;;;;;5076934;28;20464;-76
2021/03/19 09:43:39;;;;;;;10.00;9.10;;;7.70;90.50;;;;;;5095603;28;20438;-74
2021/03/19 09:46:28;;;;;;;10.40;9.40;;;7.80;91.40;;;;;;5073506;28;20959;-75
2021/03/19 09:48:55;;;;;;;9.03;8.30;;;7.90;91.20;;;;;;5057598;28;20721;-75
2021/03/19 09:51:43;;;;;;;9.90;9.00;;;8.20;91.70;;;;;;5055036;28;20431;-75
2021/03/19 09:54:27;;;;;;;8.70;8.00;;;8.50;91.30;;;;;;5055161;28;20720;-75
2021/03/19 09:57:02;;;;;;;9.70;8.80;;;8.70;91.40;;;;;;5073616;28;20442;-75
2021/03/19 09:59:32;;;;;;;10.73;9.73;;;9.00;90.10;;;;;;5073398;28;20410;-75
2021/03/19 10:01:59;;;;;;;8.33;7.73;;;8.90;88.70;;;;;;5074761;28;20439;-75
2021/03/19 10:04:38;;;;;;;8.70;7.80;;;9.00;88.30;;;;;;5075392;28;20733;-75
2021/03/19 10:07:15;;;;;;;9.07;8.47;;;9.40;89.20;;;;;;5056450;28;20448;-74
2021/03/19 10:09:50;;;;;;;7.70;7.10;;;9.70;87.90;;;;;;5075537;28;20426;-75
2021/03/19 10:12:22;;;;;;;7.27;6.67;;;10.00;85.00;;;;;;5074758;28;20384;-81
2021/03/19 10:14:51;;;;;;;7.37;5.70;;;10.40;83.40;;;;;;5075310;28;20405;-75
2021/03/19 10:17:28;;;;;;;5.83;5.33;;;10.80;79.00;;;;;;5054213;28;20894;-78
2021/03/19 10:20:14;;;;;;;6.70;5.57;;;10.90;78.60;;;;;;5057679;28;20435;-73
2021/03/19 10:22:46;;;;;;;5.90;5.43;;;11.10;77.80;;;;;;5063151;28;20420;-76
2021/03/19 10:25:25;;;;;;;6.50;5.80;;;11.30;80.20;;;;;;5074501;28;20397;-76
2021/03/19 10:27:54;;;;;;;5.70;5.20;;;11.50;75.90;;;;;;5056689;28;20934;-75
2021/03/19 10:30:31;;;;;;;5.63;5.13;;;11.30;74.70;;;;;;5054383;28;20863;-75
2021/03/19 10:33:18;;;;;;;5.67;5.17;;;11.00;75.20;;;;;;5053949;28;20936;-76
2021/03/19 10:35:51;;;;;;;6.13;5.53;;;10.90;74.00;;;;;;5054565;28;20424;-76
2021/03/19 10:38:28;;;;;;;5.97;5.17;;;10.90;72.40;;;;;;5058072;28;20400;-75
2021/03/19 10:41:01;;;;;;;5.83;5.37;;;10.50;73.40;;;;;;5062113;28;20408;-76
2021/03/19 10:43:48;;;;;;;5.90;5.47;;;10.30;76.80;;;;;;5061482;28;20412;-76
2021/03/19 10:46:20;;;;;;;5.23;4.80;;;10.50;75.60;;;;;;5085364;28;20457;-76
2021/03/19 10:48:55;;;;;;;6.60;4.80;;;10.10;74.50;;;;;;5094616;28;20438;-75
2021/03/19 10:51:41;;;;;;;152.40;82.10;;;10.10;74.20;;;;;;5094295;28;20390;-75
2021/03/19 10:54:22;;;;;;;9.77;8.10;;;10.10;73.60;;;;;;5094210;28;20394;-75
2021/03/19 10:56:52;;;;;;;5.50;5.07;;;10.00;75.50;;;;;;5093325;28;20442;-75
2021/03/19 10:59:28;;;;;;;4.27;3.87;;;10.30;76.60;;;;;;5090199;28;20397;-75
2021/03/19 11:01:54;;;;;;;6.27;5.10;;;10.50;72.40;;;;;;5087545;28;20422;-75
2021/03/19 11:04:56;;;;;;;5.00;4.50;;;10.40;71.10;;;;;;5073283;28;20435;-75
2021/03/19 11:07:27;;;;;;;4.10;3.80;;;10.60;72.50;;;;;;5042198;28;20776;-75
2021/03/19 11:10:12;;;;;;;3.80;3.40;;;10.80;72.00;;;;;;5077779;28;20430;-75
2021/03/19 11:12:46;;;;;;;5.20;4.80;;;10.50;68.90;;;;;;5093848;28;20430;-75
2021/03/19 11:15:32;;;;;;;4.63;4.33;;;10.30;70.40;;;;;;5090038;28;20413;-75
2021/03/19 11:18:23;;;;;;;3.73;3.53;;;9.90;70.00;;;;;;5075292;28;20422;-77
2021/03/19 11:20:49;;;;;;;5.03;4.63;;;9.40;70.90;;;;;;5094083;28;20410;-77
2021/03/19 11:23:35;;;;;;;5.80;4.33;;;9.40;71.50;;;;;;5092065;28;20433;-80
2021/03/19 11:26:12;;;;;;;45.47;29.00;;;9.60;73.40;;;;;;5093638;28;20165;-78
2021/03/19 11:28:42;;;;;;;77.67;46.87;;;9.80;74.90;;;;;;5084145;28;20967;-77
2021/03/19 11:31:13;;;;;;;3.40;3.20;;;10.00;73.10;;;;;;5093237;28;20457;-80
2021/03/19 11:34:14;;;;;;;5.00;4.70;;;10.00;71.40;;;;;;5093087;28;20418;-79
2021/03/19 11:36:56;;;;;;;4.37;3.53;;;9.80;72.00;;;;;;5048258;28;20954;-76
2021/03/19 11:40:01;;;;;;;3.87;3.57;;;9.90;74.50;;;;;;5089434;28;20414;-74
2021/03/19 11:42:40;;;;;;;4.80;4.50;;;10.10;71.30;;;;;;5076267;28;20425;-79
2021/03/19 11:45:29;;;;;;;3.37;3.17;;;10.30;70.80;;;;;;5076349;28;20476;-75
2021/03/19 11:47:58;;;;;;;4.27;3.97;;;10.50;72.70;;;;;;5059413;28;20468;-74
2021/03/19 11:50:24;;;;;;;4.13;3.83;;;10.70;71.40;;;;;;5081062;28;20434;-75
2021/03/19 11:53:12;;;;;;;3.30;3.10;;;10.80;69.30;;;;;;5074304;28;20917;-75
2021/03/19 11:55:47;;;;;;;3.97;3.70;;;10.60;68.00;;;;;;5091406;28;20407;-75
2021/03/19 11:58:15;;;;;;;3.50;3.30;;;10.60;67.20;;;;;;5091522;28;20418;-75
2021/03/19 12:00:42;;;;;;;4.37;4.17;;;10.50;66.20;;;;;;5092290;28;20425;-76
2021/03/19 12:03:19;;;;;;;3.27;3.07;;;10.30;65.80;;;;;;5091745;28;20415;-76
2021/03/19 12:05:45;;;;;;;3.30;3.17;;;10.10;66.60;;;;;;5093434;28;20413;-75
2021/03/19 12:08:11;;;;;;;3.87;3.77;;;10.40;69.10;;;;;;5092705;28;20997;-75
2021/03/19 12:10:37;;;;;;;3.60;3.30;;;10.90;64.40;;;;;;5093205;28;20442;-76
2021/03/19 12:13:06;;;;;;;3.70;3.50;;;11.30;63.20;;;;;;5093342;28;20250;-75
2021/03/19 12:15:34;;;;;;;3.10;2.90;;;11.50;62.00;;;;;;5092940;28;20172;-75
2021/03/19 12:18:00;;;;;;;3.20;3.10;;;11.70;59.40;;;;;;5093204;28;20748;-75
2021/03/19 12:20:26;;;;;;;5.00;3.80;;;11.80;60.30;;;;;;5092286;28;20416;-76
2021/03/19 12:22:52;;;;;;;4.40;4.20;;;11.90;60.70;;;;;;5092904;28;20405;-76
2021/03/19 12:25:23;;;;;;;4.23;3.93;;;11.80;61.40;;;;;;5092478;28;20731;-76
2021/03/19 12:27:49;;;;;;;4.50;4.30;;;11.70;63.00;;;;;;5093025;28;20451;-75
2021/03/19 12:30:21;;;;;;;3.63;3.33;;;10.80;59.50;;;;;;5092350;28;20405;-76
2021/03/19 12:32:47;;;;;;;7.50;4.13;;;10.40;60.00;;;;;;5074872;28;20247;-76
2021/03/19 12:35:15;;;;;;;3.80;3.40;;;10.10;62.50;;;;;;5091816;28;20402;-75
2021/03/19 12:37:41;;;;;;;4.30;3.20;;;10.10;62.00;;;;;;5074715;28;20744;-75
2021/03/19 12:40:09;;;;;;;4.30;4.00;;;10.10;62.70;;;;;;5092377;28;20399;-75
2021/03/19 12:42:34;;;;;;;3.20;3.00;;;10.00;63.20;;;;;;5074099;28;20233;-75
2021/03/19 12:45:00;;;;;;;3.27;3.07;;;10.10;61.60;;;;;;5092594;28;20509;-76
2021/03/19 12:47:26;;;;;;;4.50;4.30;;;10.30;61.00;;;;;;5092108;28;20225;-76
2021/03/19 12:49:51;;;;;;;3.87;3.67;;;10.50;59.90;;;;;;5092671;28;20180;-76
2021/03/19 12:52:17;;;;;;;3.73;3.53;;;10.80;59.20;;;;;;5092073;28;20177;-76
2021/03/19 12:54:43;;;;;;;3.27;3.10;;;11.00;59.20;;;;;;5076319;28;20166;-76
2021/03/19 12:57:09;;;;;;;3.13;3.00;;;11.10;58.90;;;;;;5099397;28;20249;-75
2021/03/19 12:59:35;;;;;;;3.60;3.40;;;11.10;58.30;;;;;;5099386;28;20257;-76
2021/03/19 13:02:00;;;;;;;3.43;3.23;;;11.10;58.80;;;;;;5099383;28;20472;-76
2021/03/19 13:04:27;;;;;;;3.60;3.30;;;10.60;59.80;;;;;;5098810;28;20171;-75
2021/03/19 13:06:53;;;;;;;3.03;2.83;;;10.30;60.90;;;;;;5099267;28;20215;-76
2021/03/19 13:09:19;;;;;;;5.10;4.30;;;10.30;62.10;;;;;;5098761;28;20838;-76
2021/03/19 13:11:45;;;;;;;3.57;3.40;;;10.30;60.40;;;;;;5098959;28;20410;-75
2021/03/19 13:14:10;;;;;;;2.80;2.60;;;10.30;61.90;;;;;;5098787;28;20621;-76
2021/03/19 13:16:36;;;;;;;3.10;2.80;;;10.20;61.10;;;;;;5099243;28;20179;-74